Time;durP1;ratioP1;P1;durP2;ratioP2;P2;SDS_P1;SDS_P2;PMS_P1;PMS_P2;Temp;Humidity;BMP_temperature;BMP_pressure;BME280_temperature;BME280_humidity;BME280_pressure;Samples;Min_cycle;Max_cycle;Signal;HPM_P1;HPM_P2
2021/10/23 00:00:51;;;;;;;37.70;10.77;;;;;;;13.46;100.00;102303.00;5095564;28;20253;-57
2021/10/23 00:03:16;;;;;;;37.80;8.70;;;;;;;13.03;100.00;102308.72;5096724;28;20043;-57
2021/10/23 00:05:42;;;;;;;36.00;8.90;;;;;;;13.38;100.00;102309.22;5095234;28;20703;-57
2021/10/23 00:08:07;;;;;;;27.60;6.13;;;;;;;13.28;100.00;102316.69;5096602;28;20529;-58
2021/10/23 00:10:33;;;;;;;19.83;6.67;;;;;;;13.22;100.00;102317.38;5095068;28;20381;-57
2021/10/23 00:12:59;;;;;;;23.27;6.43;;;;;;;13.31;100.00;102319.84;5096206;28;20067;-58
2021/10/23 00:15:24;;;;;;;37.08;7.30;;;;;;;13.16;100.00;102327.00;5096460;28;20085;-57
2021/10/23 00:17:50;;;;;;;34.38;7.75;;;;;;;13.34;100.00;102324.84;5094655;28;20458;-56
2021/10/23 00:20:15;;;;;;;21.77;6.60;;;;;;;13.23;100.00;102321.72;5096621;28;20032;-57
2021/10/23 00:22:41;;;;;;;24.80;6.73;;;;;;;13.30;100.00;102325.41;5096557;28;20036;-56
2021/10/23 00:25:08;;;;;;;24.53;5.20;;;;;;;13.03;100.00;102320.34;5095023;28;20260;-58
2021/10/23 00:27:33;;;;;;;27.30;6.15;;;;;;;13.10;100.00;102319.63;5094531;28;20093;-57
2021/10/23 00:29:59;;;;;;;21.38;5.00;;;;;;;13.05;100.00;102334.41;5077990;28;20036;-56
2021/10/23 00:32:26;;;;;;;27.57;5.53;;;;;;;13.00;100.00;102333.25;5077989;28;20040;-56
2021/10/23 00:34:52;;;;;;;32.17;5.30;;;;;;;13.04;100.00;102329.25;5078493;28;20032;-57
2021/10/23 00:37:19;;;;;;;18.38;5.63;;;;;;;13.12;100.00;102325.66;5061101;28;20035;-56
2021/10/23 00:39:44;;;;;;;18.45;4.50;;;;;;;13.05;100.00;102328.22;5095511;28;20031;-53
2021/10/23 00:42:10;;;;;;;18.75;4.90;;;;;;;13.24;100.00;102329.63;5094072;28;20040;-57
2021/10/23 00:44:39;;;;;;;20.63;5.70;;;;;;;13.12;100.00;102322.97;5095338;28;20397;-57
2021/10/23 00:47:06;;;;;;;16.40;4.80;;;;;;;13.29;100.00;102321.03;5096200;28;20107;-58
2021/10/23 00:49:34;;;;;;;16.10;5.13;;;;;;;13.29;100.00;102323.72;5077881;28;20042;-57
2021/10/23 00:52:01;;;;;;;21.13;6.40;;;;;;;13.33;100.00;102314.28;5095467;28;20381;-57
2021/10/23 00:54:27;;;;;;;14.55;4.50;;;;;;;13.45;100.00;102326.31;5095376;28;20088;-57
2021/10/23 00:56:54;;;;;;;24.95;5.32;;;;;;;13.32;100.00;102328.75;5096064;28;20032;-55
2021/10/23 00:59:21;;;;;;;24.38;5.47;;;;;;;13.17;100.00;102334.03;5094578;28;20044;-57
2021/10/23 01:01:47;;;;;;;;;;;;;;;13.23;100.00;102330.63;5094650;28;20454;-57
2021/10/23 01:04:13;;;;;;;28.42;5.35;;;;;;;13.24;100.00;102329.63;5094124;28;19918;-56
2021/10/23 01:06:39;;;;;;;11.88;5.95;;;;;;;13.16;100.00;102333.19;5094198;28;20036;-59
2021/10/23 01:09:06;;;;;;;19.58;5.80;;;;;;;13.01;100.00;102343.84;5095117;28;20032;-57
2021/10/23 01:11:32;;;;;;;25.42;7.75;;;;;;;13.13;100.00;102327.31;5094648;28;20047;-57
2021/10/23 01:13:57;;;;;;;18.63;6.22;;;;;;;13.06;100.00;102324.53;5095069;28;20024;-57
2021/10/23 01:16:23;;;;;;;19.23;6.63;;;;;;;13.10;100.00;102320.47;5095143;28;20036;-57
2021/10/23 01:18:48;;;;;;;25.90;8.38;;;;;;;13.06;100.00;102321.84;5060539;28;20047;-55
2021/10/23 01:21:19;;;;;;;22.73;6.63;;;;;;;13.05;100.00;102323.66;5060353;28;20453;-57
2021/10/23 01:23:45;;;;;;;19.45;6.22;;;;;;;13.11;100.00;102321.28;5093680;28;20036;-56
2021/10/23 01:26:10;;;;;;;14.07;5.67;;;;;;;13.09;100.00;102326.00;5077298;28;20044;-57
2021/10/23 01:28:36;;;;;;;20.80;6.33;;;;;;;12.77;100.00;102334.88;5093855;28;20040;-56
2021/10/23 01:31:01;;;;;;;18.13;6.30;;;;;;;12.69;100.00;102326.88;5094708;28;20260;-57
2021/10/23 01:33:27;;;;;;;30.33;7.27;;;;;;;12.93;100.00;102325.09;5094624;28;20365;-56
2021/10/23 01:35:52;;;;;;;19.70;8.03;;;;;;;12.79;100.00;102315.06;5093601;28;20461;-57
2021/10/23 01:38:18;;;;;;;16.17;6.70;;;;;;;12.75;100.00;102317.25;5095015;28;20036;-56
2021/10/23 01:40:43;;;;;;;18.77;6.60;;;;;;;12.79;100.00;102315.06;5094691;28;20114;-57
2021/10/23 01:43:09;;;;;;;25.57;8.43;;;;;;;12.88;100.00;102316.69;5077326;28;20055;-57
2021/10/23 01:45:34;;;;;;;20.40;7.47;;;;;;;12.83;100.00;102319.06;5095053;28;20460;-57
2021/10/23 01:48:00;;;;;;;21.33;7.65;;;;;;;12.77;100.00;102316.09;5093566;28;20457;-56
2021/10/23 01:50:28;;;;;;;27.50;8.98;;;;;;;12.90;100.00;102304.78;5094507;28;20112;-55
2021/10/23 01:52:56;;;;;;;23.40;8.18;;;;;;;12.67;100.00;102307.38;5093203;28;20032;-54
2021/10/23 01:55:21;;;;;;;20.50;8.32;;;;;;;12.56;100.00;102307.78;5076483;28;20038;-57
2021/10/23 01:57:47;;;;;;;23.47;8.83;;;;;;;12.51;100.00;102310.13;5076494;28;20040;-57
2021/10/23 02:00:15;;;;;;;23.10;9.13;;;;;;;12.57;100.00;102320.19;5093224;28;20269;-54
2021/10/23 02:02:41;;;;;;;20.80;8.57;;;;;;;12.52;100.00;102322.53;5093527;28;20362;-54
2021/10/23 02:05:07;;;;;;;20.58;9.30;;;;;;;12.59;100.00;102320.84;5094316;28;20108;-56
2021/10/23 02:07:33;;;;;;;21.80;8.60;;;;;;;12.58;100.00;102321.84;5094395;28;20542;-55
2021/10/23 02:09:59;;;;;;;25.08;9.07;;;;;;;12.50;100.00;102319.19;5093848;28;20165;-54
2021/10/23 02:12:24;;;;;;;17.23;8.90;;;;;;;12.46;100.00;102310.66;5093739;28;20050;-58
2021/10/23 02:14:50;;;;;;;29.40;10.30;;;;;;;12.69;100.00;102324.19;5093014;28;20131;-58
2021/10/23 02:17:16;;;;;;;27.38;10.75;;;;;;;12.83;100.00;102330.66;5076195;28;20101;-57
2021/10/23 02:19:41;;;;;;;18.98;9.82;;;;;;;12.73;100.00;102330.88;5093311;28;20043;-58
2021/10/23 02:22:07;;;;;;;23.83;10.43;;;;;;;12.69;100.00;102329.53;5093333;28;20454;-57
2021/10/23 02:24:33;;;;;;;19.55;9.98;;;;;;;12.59;100.00;102334.25;5093568;28;20044;-59
2021/10/23 02:27:00;;;;;;;21.10;11.18;;;;;;;12.60;100.00;102335.94;5093701;28;20044;-56
2021/10/23 02:29:26;;;;;;;44.67;11.53;;;;;;;12.54;100.00;102342.81;5093739;28;20036;-54
2021/10/23 02:31:51;;;;;;;31.65;11.32;;;;;;;12.41;100.00;102335.31;5093252;28;20042;-57
2021/10/23 02:34:18;;;;;;;28.75;10.30;;;;;;;12.38;100.00;102335.66;5092569;28;20093;-56
2021/10/23 02:36:44;;;;;;;;;;;;;;;12.57;100.00;102336.28;5093343;28;20036;-55
2021/10/23 02:39:10;;;;;;;24.98;10.40;;;;;;;12.64;100.00;102342.63;5093184;28;20299;-57
2021/10/23 02:41:36;;;;;;;18.83;10.68;;;;;;;12.52;100.00;102336.78;5092763;28;20046;-53
2021/10/23 02:44:02;;;;;;;26.67;12.48;;;;;;;12.40;100.00;102325.56;5093167;28;20036;-54
2021/10/23 02:46:28;;;;;;;24.35;10.43;;;;;;;12.70;100.00;102333.91;5093652;28;20115;-59
2021/10/23 02:48:53;;;;;;;23.92;11.30;;;;;;;12.55;100.00;102330.25;5093826;28;20066;-61
2021/10/23 02:51:19;;;;;;;41.28;13.52;;;;;;;12.39;100.00;102329.28;5093548;28;20047;-59
2021/10/23 02:53:45;;;;;;;19.88;10.93;;;;;;;12.52;100.00;102334.09;5093485;28;20036;-55
2021/10/23 02:56:10;;;;;;;25.08;11.85;;;;;;;12.31;100.00;102340.03;5092507;28;20115;-57
2021/10/23 02:58:36;;;;;;;23.02;11.95;;;;;;;12.43;100.00;102335.13;5093646;28;20032;-60
2021/10/23 03:01:03;;;;;;;36.33;11.88;;;;;;;12.42;100.00;102342.34;5075442;28;20036;-55
2021/10/23 03:03:29;;;;;;;28.88;11.65;;;;;;;12.59;100.00;102345.00;5092650;28;20028;-58
2021/10/23 03:05:55;;;;;;;32.80;10.98;;;;;;;12.45;100.00;102338.50;5093337;28;20038;-55
2021/10/23 03:08:20;;;;;;;29.75;11.13;;;;;;;12.59;100.00;102345.00;5075609;28;20123;-58
2021/10/23 03:10:46;;;;;;;24.15;10.77;;;;;;;12.57;100.00;102339.81;5093375;28;20474;-58
2021/10/23 03:13:12;;;;;;;21.77;11.27;;;;;;;12.31;100.00;102342.72;5093582;28;20036;-56
2021/10/23 03:15:37;;;;;;;25.23;10.33;;;;;;;12.58;100.00;102351.38;5076228;28;20047;-56
2021/10/23 03:18:03;;;;;;;24.17;12.03;;;;;;;12.48;100.00;102357.78;5075208;28;20390;-53
2021/10/23 03:20:28;;;;;;;30.80;12.50;;;;;;;12.59;100.00;102358.41;5093122;28;20261;-54
2021/10/23 03:22:54;;;;;;;27.13;12.75;;;;;;;12.36;100.00;102356.44;5093499;28;20036;-50
2021/10/23 03:25:19;;;;;;;34.63;13.33;;;;;;;12.33;100.00;102359.47;5096330;28;20060;-57
2021/10/23 03:27:45;;;;;;;43.95;13.93;;;;;;;12.29;100.00;102360.81;5097257;28;20135;-51
2021/10/23 03:30:10;;;;;;;23.83;13.10;;;;;;;12.40;100.00;102360.47;5097323;28;20032;-55
2021/10/23 03:32:36;;;;;;;30.57;13.23;;;;;;;12.42;100.00;102361.13;5097378;28;20016;-56
2021/10/23 03:35:04;;;;;;;27.45;13.20;;;;;;;12.53;100.00;102372.53;5079431;28;20064;-58
2021/10/23 03:37:31;;;;;;;25.10;14.20;;;;;;;12.30;100.00;102374.03;5097004;28;20068;-55
2021/10/23 03:39:57;;;;;;;;;;;;;;;12.13;100.00;102383.13;5097878;28;20040;-56
2021/10/23 03:42:25;;;;;;;31.13;15.55;;;;;;;12.51;100.00;102385.28;5097649;28;19957;-56
2021/10/23 03:44:51;;;;;;;29.13;13.48;;;;;;;12.31;100.00;102386.44;5097060;28;20036;-52
2021/10/23 03:47:16;;;;;;;37.65;14.13;;;;;;;12.34;100.00;102377.25;5096314;28;20043;-54
2021/10/23 03:49:46;;;;;;;37.00;15.63;;;;;;;12.54;100.00;102395.66;5095584;28;20028;-56
2021/10/23 03:52:12;;;;;;;27.60;13.98;;;;;;;12.64;100.00;102392.78;5097323;28;20039;-55
2021/10/23 03:54:39;;;;;;;39.85;14.77;;;;;;;12.47;100.00;102400.88;5097049;28;20024;-51
2021/10/23 03:57:04;;;;;;;30.30;14.00;;;;;;;12.47;100.00;102392.81;5096859;28;20450;-53
2021/10/23 03:59:31;;;;;;;31.83;15.13;;;;;;;12.17;100.00;102392.50;5095749;28;20031;-53
2021/10/23 04:01:56;;;;;;;32.10;15.00;;;;;;;12.43;100.00;102395.00;5095897;28;20081;-54
2021/10/23 04:04:22;;;;;;;40.92;14.93;;;;;;;12.54;100.00;102387.63;5095359;28;20028;-58
2021/10/23 04:06:48;;;;;;;38.73;14.97;;;;;;;12.52;100.00;102389.63;5095945;28;20446;-58
2021/10/23 04:09:14;;;;;;;34.90;16.15;;;;;;;12.55;100.00;102395.47;5096447;28;20484;-56
2021/10/23 04:11:39;;;;;;;31.48;15.88;;;;;;;12.16;100.00;102391.66;5096685;28;20036;-57
2021/10/23 04:14:05;;;;;;;36.50;12.87;;;;;;;12.31;100.00;102385.63;5095283;28;20059;-57
2021/10/23 04:16:30;;;;;;;31.90;16.63;;;;;;;12.32;100.00;102382.75;5096570;28;20611;-50
2021/10/23 04:18:56;;;;;;;36.83;16.73;;;;;;;12.23;100.00;102385.66;5096357;28;20031;-51
2021/10/23 04:21:22;;;;;;;32.93;15.97;;;;;;;12.15;100.00;102384.63;5095160;28;20054;-50
2021/10/23 04:23:48;;;;;;;41.33;16.77;;;;;;;12.27;100.00;102384.28;5095940;28;20263;-56
2021/10/23 04:26:13;;;;;;;36.17;16.00;;;;;;;12.44;100.00;102382.44;5096770;28;20028;-58
2021/10/23 04:28:39;;;;;;;37.67;17.03;;;;;;;12.27;100.00;102384.28;5096546;28;20255;-57
2021/10/23 04:31:04;;;;;;;36.83;17.17;;;;;;;12.14;100.00;102390.16;5095039;28;20064;-53
2021/10/23 04:33:30;;;;;;;40.78;15.80;;;;;;;12.50;100.00;102389.78;5095014;28;20028;-55
2021/10/23 04:35:55;;;;;;;34.57;16.33;;;;;;;12.48;100.00;102392.66;5095570;28;20151;-56
2021/10/23 04:38:21;;;;;;;34.33;17.07;;;;;;;12.31;100.00;102385.63;5095079;28;20072;-58
2021/10/23 04:40:46;;;;;;;28.70;15.83;;;;;;;12.52;100.00;102395.00;5078354;28;20036;-54
2021/10/23 04:43:12;;;;;;;35.00;16.30;;;;;;;12.52;100.00;102393.13;5094611;28;20284;-57
2021/10/23 04:45:39;;;;;;;38.45;17.63;;;;;;;12.50;100.00;102399.69;5094785;28;20074;-54
2021/10/23 04:48:06;;;;;;;39.38;17.63;;;;;;;12.43;100.00;102400.34;5096239;28;20078;-53
2021/10/23 04:50:31;;;;;;;;;;;;;;;12.55;100.00;102398.16;5095167;28;20039;-53
2021/10/23 04:52:57;;;;;;;39.87;17.57;;;;;;;12.48;100.00;102397.19;5095009;28;19908;-57
2021/10/23 04:55:22;;;;;;;38.97;16.93;;;;;;;12.48;100.00;102395.34;5094973;28;20044;-51
2021/10/23 04:57:48;;;;;;;34.70;17.23;;;;;;;12.39;100.00;102395.53;5094609;28;20272;-53
2021/10/23 05:00:13;;;;;;;40.77;18.80;;;;;;;12.47;100.00;102392.81;5095742;28;20050;-58
2021/10/23 05:02:39;;;;;;;41.90;18.13;;;;;;;12.55;100.00;102400.84;5094267;28;20035;-56
2021/10/23 05:05:05;;;;;;;42.80;18.40;;;;;;;12.38;100.00;102397.34;5095374;28;20275;-52
2021/10/23 05:07:31;;;;;;;42.05;18.63;;;;;;;12.46;100.00;102404.56;5094193;28;20024;-54
2021/10/23 05:09:56;;;;;;;38.47;18.03;;;;;;;12.27;100.00;102406.56;5095281;28;20042;-54
2021/10/23 05:12:22;;;;;;;37.57;19.30;;;;;;;12.30;100.00;102408.91;5095492;28;20360;-52
2021/10/23 05:14:47;;;;;;;43.07;20.13;;;;;;;12.08;100.00;102412.28;5077682;28;20432;-56
2021/10/23 05:17:12;;;;;;;42.17;21.20;;;;;;;12.36;100.00;102415.47;5093911;28;20070;-57
2021/10/23 05:19:38;;;;;;;51.43;20.97;;;;;;;12.29;100.00;102407.25;5077908;28;20020;-55
2021/10/23 05:22:04;;;;;;;52.00;21.42;;;;;;;12.38;100.00;102413.44;5094210;28;20532;-57
2021/10/23 05:24:29;;;;;;;55.60;22.58;;;;;;;12.44;100.00;102410.06;5095043;28;20046;-56
2021/10/23 05:26:55;;;;;;;45.93;21.47;;;;;;;12.42;100.00;102406.72;5094282;28;20036;-53
2021/10/23 05:29:21;;;;;;;46.78;20.67;;;;;;;12.45;100.00;102409.06;5077930;28;20135;-54
2021/10/23 05:31:46;;;;;;;48.97;22.27;;;;;;;12.40;100.00;102416.78;5095535;28;20502;-51
2021/10/23 05:34:12;;;;;;;44.83;21.57;;;;;;;12.50;100.00;102421.16;5095115;28;20046;-55
2021/10/23 05:36:38;;;;;;;48.83;20.55;;;;;;;12.56;100.00;102417.78;5095098;28;20052;-53
2021/10/23 05:39:04;;;;;;;50.90;22.70;;;;;;;12.38;100.00;102418.81;5077194;28;20085;-55
2021/10/23 05:41:30;;;;;;;48.58;21.92;;;;;;;12.12;100.00;102422.50;5094803;28;20036;-56
2021/10/23 05:43:55;;;;;;;45.63;22.20;;;;;;;12.16;100.00;102414.97;5093600;28;20035;-56
2021/10/23 05:46:21;;;;;;;43.63;21.40;;;;;;;12.35;100.00;102421.84;5094373;28;20115;-55
2021/10/23 05:48:47;;;;;;;49.20;23.27;;;;;;;12.37;100.00;102421.69;5095049;28;20036;-55
2021/10/23 05:51:13;;;;;;;43.85;21.80;;;;;;;12.07;100.00;102427.53;5093941;28;20043;-52
2021/10/23 05:53:39;;;;;;;53.10;23.13;;;;;;;12.27;100.00;102421.84;5077070;28;20068;-55
2021/10/23 05:56:04;;;;;;;43.78;20.70;;;;;;;12.47;100.00;102428.56;5093270;28;20035;-54
2021/10/23 05:58:30;;;;;;;49.22;23.05;;;;;;;12.52;100.00;102441.44;5094514;28;20038;-54
2021/10/23 06:01:14;;;;;;;51.83;20.65;;;;;;;12.56;100.00;102450.00;5093467;28;20035;-57
2021/10/23 06:03:40;;;;;;;47.83;22.20;;;;;;;12.43;100.00;102453.19;5094884;28;20063;-55
2021/10/23 06:06:08;;;;;;;46.67;21.38;;;;;;;12.36;100.00;102460.25;5093370;28;20450;-55
2021/10/23 06:08:37;;;;;;;49.38;24.80;;;;;;;12.27;100.00;102459.41;5094918;28;20065;-55
2021/10/23 06:11:03;;;;;;;53.30;21.83;;;;;;;12.14;100.00;102467.94;5094334;28;20085;-55
2021/10/23 06:13:29;;;;;;;45.20;21.33;;;;;;;12.36;100.00;102477.16;5094417;28;20479;-56
2021/10/23 06:15:54;;;;;;;44.63;20.23;;;;;;;12.44;100.00;102462.91;5094675;28;20127;-55
2021/10/23 06:18:20;;;;;;;77.77;31.03;;;;;;;12.51;100.00;102471.97;5092950;28;20351;-56
2021/10/23 06:20:46;;;;;;;48.25;23.13;;;;;;;12.37;100.00;102473.47;5093407;28;20046;-53
2021/10/23 06:23:12;;;;;;;54.88;23.33;;;;;;;12.42;100.00;102487.22;5092926;28;20032;-55
2021/10/23 06:25:38;;;;;;;47.65;21.77;;;;;;;12.67;100.00;102483.72;5094011;28;20032;-57
2021/10/23 06:28:04;;;;;;;36.65;19.33;;;;;;;12.75;100.00;102492.59;5093810;28;20047;-56
2021/10/23 06:30:30;;;;;;;40.17;21.13;;;;;;;12.84;100.00;102497.94;5076195;28;20412;-58
2021/10/23 06:32:57;;;;;;;37.22;19.65;;;;;;;12.75;100.00;102489.06;5076246;28;20054;-51
2021/10/23 06:35:23;;;;;;;35.08;19.02;;;;;;;12.66;100.00;102482.84;5093734;28;20065;-55
2021/10/23 06:37:49;;;;;;;43.50;19.93;;;;;;;12.58;100.00;102482.88;5093826;28;20548;-57
2021/10/23 06:40:16;;;;;;;32.83;19.02;;;;;;;12.70;100.00;102497.66;5093950;28;20020;-54
2021/10/23 06:42:42;;;;;;;39.67;18.85;;;;;;;12.81;100.00;102503.66;5094447;28;20048;-56
2021/10/23 06:45:11;;;;;;;42.53;19.58;;;;;;;12.81;100.00;102498.28;5093670;28;20032;-55
2021/10/23 06:47:38;;;;;;;40.53;19.90;;;;;;;13.07;100.00;102505.28;5093924;28;20070;-57
2021/10/23 06:50:06;;;;;;;34.78;18.85;;;;;;;13.17;100.00;102508.66;5093755;28;20043;-57
2021/10/23 06:52:32;;;;;;;38.47;19.50;;;;;;;13.13;100.00;102518.03;5094084;28;20502;-55
2021/10/23 06:54:58;;;;;;;38.15;19.80;;;;;;;13.10;100.00;102516.53;5093474;28;20020;-56
2021/10/23 06:57:24;;;;;;;33.42;19.17;;;;;;;13.34;100.00;102521.00;5091998;28;20048;-55
2021/10/23 06:59:49;;;;;;;31.43;17.03;;;;;;;13.36;100.00;102522.69;5092242;28;20169;-59
2021/10/23 07:02:15;;;;;;;37.90;18.90;;;;;;;13.19;100.00;102520.88;5093574;28;20757;-56
2021/10/23 07:04:40;;;;;;;35.83;17.60;;;;;;;13.41;100.00;102520.34;5093627;28;20527;-57
2021/10/23 07:07:06;;;;;;;34.33;19.50;;;;;;;13.48;100.00;102532.91;5075374;28;20040;-57
2021/10/23 07:09:32;;;;;;;37.20;18.33;;;;;;;13.50;100.00;102530.06;5092261;28;20032;-55
2021/10/23 07:11:58;;;;;;;33.35;18.23;;;;;;;13.51;100.00;102530.91;5093375;28;20031;-57
2021/10/23 07:14:24;;;;;;;37.15;17.83;;;;;;;13.44;100.00;102533.44;5093203;28;20036;-52
2021/10/23 07:16:49;;;;;;;35.75;19.20;;;;;;;13.55;100.00;102534.94;5092239;28;20453;-51
2021/10/23 07:19:15;;;;;;;34.72;19.65;;;;;;;13.39;100.00;102543.84;5092233;28;20028;-49
2021/10/23 07:21:41;;;;;;;32.75;19.35;;;;;;;13.67;100.00;102540.75;5092300;28;20043;-51
2021/10/23 07:24:06;;;;;;;36.27;20.77;;;;;;;13.52;100.00;102549.53;5075928;28;20028;-52
2021/10/23 07:26:32;;;;;;;36.40;19.50;;;;;;;13.69;100.00;102560.25;5075197;28;20286;-55
2021/10/23 07:28:58;;;;;;;34.10;18.48;;;;;;;13.90;100.00;102563.19;5092429;28;20032;-55
2021/10/23 07:31:24;;;;;;;30.90;17.85;;;;;;;14.02;100.00;102570.84;5058645;28;20047;-51
2021/10/23 07:33:49;;;;;;;35.00;19.33;;;;;;;14.11;100.00;102564.41;5093351;28;20028;-61
2021/10/23 07:36:17;;;;;;;30.67;18.65;;;;;;;13.85;100.00;102579.00;5092110;28;20059;-53
2021/10/23 07:38:44;;;;;;;35.42;18.70;;;;;;;14.03;100.00;102572.50;5091835;28;20044;-54
2021/10/23 07:41:09;;;;;;;;;;;;;;;14.18;100.00;102576.13;5093314;28;20028;-55
2021/10/23 07:43:35;;;;;;;31.37;17.43;;;;;;;14.23;100.00;102582.84;5093264;28;20026;-54
2021/10/23 07:46:02;;;;;;;37.30;19.50;;;;;;;14.20;100.00;102589.44;5093521;28;20406;-53
2021/10/23 07:48:27;;;;;;;37.37;19.90;;;;;;;14.21;100.00;102591.09;5091706;28;20074;-54
2021/10/23 07:50:53;;;;;;;32.43;18.80;;;;;;;14.07;100.00;102590.00;5093185;28;20292;-58
2021/10/23 07:53:20;;;;;;;39.63;19.52;;;;;;;14.07;100.00;102590.00;5091528;28;20024;-57
2021/10/23 07:55:46;;;;;;;30.47;18.80;;;;;;;14.16;100.00;102591.63;5091675;28;20100;-55
2021/10/23 07:58:12;;;;;;;42.22;22.23;;;;;;;14.04;100.00;102601.09;5092061;28;20325;-57
2021/10/23 08:00:38;;;;;;;37.67;22.15;;;;;;;13.99;100.00;102606.16;5074923;28;20040;-51
2021/10/23 08:03:04;;;;;;;45.65;24.52;;;;;;;14.13;100.00;102597.34;5091487;28;20438;-55
2021/10/23 08:05:38;;;;;;;56.45;29.27;;;;;;;14.21;100.00;102601.88;5091373;28;20028;-56
2021/10/23 08:08:06;;;;;;;55.10;29.10;;;;;;;14.37;100.00;102611.69;5093089;28;20397;-59
2021/10/23 08:10:32;;;;;;;47.63;26.77;;;;;;;14.66;100.00;102615.53;5076164;28;20298;-54
2021/10/23 08:12:59;;;;;;;50.00;26.33;;;;;;;14.89;100.00;102615.56;5095624;28;20273;-57
2021/10/23 08:15:25;;;;;;;51.43;26.60;;;;;;;15.02;100.00;102616.81;5094953;28;20263;-54
2021/10/23 08:17:52;;;;;;;45.75;24.65;;;;;;;15.08;100.00;102618.75;5094861;28;20308;-56
2021/10/23 08:20:18;;;;;;;41.23;22.23;;;;;;;15.16;100.00;102616.00;5097186;28;20032;-54
2021/10/23 08:22:43;;;;;;;31.50;18.67;;;;;;;15.20;100.00;102621.84;5094567;28;20664;-57
2021/10/23 08:25:11;;;;;;;33.38;18.90;;;;;;;15.19;100.00;102622.88;5095989;28;20032;-56
2021/10/23 08:27:38;;;;;;;37.13;22.07;;;;;;;15.16;100.00;102628.63;5096117;28;20358;-57
2021/10/23 08:30:07;;;;;;;38.53;22.87;;;;;;;15.23;100.00;102626.06;5095571;28;20719;-58
2021/10/23 08:32:32;;;;;;;40.23;22.30;;;;;;;15.26;100.00;102636.47;5077854;28;20248;-58
2021/10/23 08:34:59;;;;;;;40.47;19.90;;;;;;;15.30;100.00;102645.84;5094786;28;20273;-57
2021/10/23 08:37:24;;;;;;;37.73;22.20;;;;;;;15.03;100.00;102642.72;5094497;28;20344;-56
2021/10/23 08:39:50;;;;;;;41.67;21.58;;;;;;;14.95;100.00;102648.19;5096059;28;20162;-57
2021/10/23 08:42:17;;;;;;;49.17;23.40;;;;;;;14.76;100.00;102645.81;5094505;28;20036;-54
2021/10/23 08:44:43;;;;;;;42.60;22.63;;;;;;;14.86;100.00;102642.03;5095799;28;20028;-56
2021/10/23 08:47:13;;;;;;;45.40;23.40;;;;;;;15.02;100.00;102635.66;5095592;28;20281;-57
2021/10/23 08:49:39;;;;;;;47.20;24.13;;;;;;;15.13;100.00;102634.38;5095790;28;20272;-54
2021/10/23 08:52:05;;;;;;;45.85;24.85;;;;;;;15.23;100.00;102637.69;5095827;28;20610;-57
2021/10/23 08:54:32;;;;;;;50.33;28.20;;;;;;;14.93;100.00;102642.97;5095688;28;20032;-57
2021/10/23 08:57:02;;;;;;;52.67;28.33;;;;;;;15.02;100.00;102625.75;5096053;28;20032;-58
2021/10/23 08:59:29;;;;;;;52.70;27.20;;;;;;;15.05;100.00;102611.91;5094741;28;20269;-57
2021/10/23 09:01:57;;;;;;;44.83;24.07;;;;;;;14.96;100.00;102626.44;5096211;28;20814;-57
2021/10/23 09:04:24;;;;;;;46.77;24.77;;;;;;;15.29;100.00;102628.00;5095978;28;20299;-56
2021/10/23 09:06:50;;;;;;;43.23;24.30;;;;;;;15.62;100.00;102625.81;5077449;28;20326;-58
2021/10/23 09:09:16;;;;;;;38.60;23.25;;;;;;;15.60;100.00;102640.53;5094543;28;20276;-56
2021/10/23 09:11:46;;;;;;;41.95;23.58;;;;;;;15.70;100.00;102642.94;5095343;28;20120;-57
2021/10/23 09:14:31;;;;;;;40.93;23.87;;;;;;;16.01;100.00;102647.34;5095105;28;20032;-59
2021/10/23 09:17:06;;;;;;;37.93;22.83;;;;;;;15.89;100.00;102646.97;5095739;28;20303;-57
2021/10/23 09:19:44;;;;;;;46.97;24.87;;;;;;;16.32;100.00;102647.09;5095735;28;20304;-60
2021/10/23 09:22:30;;;;;;;46.17;23.73;;;;;;;16.36;100.00;102652.94;5094933;28;20269;-60
2021/10/23 09:25:15;;;;;;;47.17;25.30;;;;;;;16.62;100.00;102655.09;5095229;28;20353;-58
2021/10/23 09:27:47;;;;;;;52.50;25.37;;;;;;;16.47;100.00;102652.47;5095953;28;20275;-57
2021/10/23 09:30:13;;;;;;;39.47;23.63;;;;;;;16.87;100.00;102657.44;5095009;28;20276;-58
2021/10/23 09:32:39;;;;;;;;;;;;;;;16.95;100.00;102661.03;5095456;28;20637;-57
2021/10/23 09:35:14;;;;;;;44.43;24.07;;;;;;;16.92;100.00;102664.97;5094773;28;19912;-59
2021/10/23 09:37:46;;;;;;;38.87;23.37;;;;;;;17.54;100.00;102669.84;5094962;28;20058;-59
2021/10/23 09:40:16;;;;;;;40.13;24.03;;;;;;;17.49;100.00;102663.16;5095050;28;20261;-60
2021/10/23 09:42:43;;;;;;;42.37;24.37;;;;;;;17.24;100.00;102662.75;5095119;28;20342;-58
2021/10/23 09:45:09;;;;;;;38.05;24.30;;;;;;;17.49;100.00;102667.72;5094491;28;20265;-56
2021/10/23 09:47:45;;;;;;;36.13;23.05;;;;;;;17.71;100.00;102673.06;5094676;28;20042;-60
2021/10/23 09:50:12;;;;;;;43.43;23.53;;;;;;;17.37;100.00;102670.13;5093342;28;20067;-59
2021/10/23 09:53:00;;;;;;;39.53;24.23;;;;;;;17.61;100.00;102660.75;5095141;28;20252;-59
2021/10/23 09:55:28;;;;;;;38.67;22.47;;;;;;;17.81;100.00;102670.88;5094758;28;20382;-59
2021/10/23 09:58:12;;;;;;;32.67;20.13;;;;;;;17.80;100.00;102662.94;5093758;28;20315;-61
2021/10/23 10:00:39;;;;;;;30.57;20.07;;;;;;;17.97;100.00;102666.13;5095371;28;20269;-60
2021/10/23 10:03:06;;;;;;;32.78;18.90;;;;;;;17.61;100.00;102662.59;5093835;28;20774;-60
2021/10/23 10:05:34;;;;;;;34.80;20.20;;;;;;;17.48;100.00;102666.06;5093340;28;20074;-62
2021/10/23 10:08:10;;;;;;;35.33;20.20;;;;;;;17.68;100.00;102670.78;5076644;28;20264;-60
2021/10/23 10:10:38;;;;;;;34.45;19.48;;;;;;;17.88;100.00;102670.91;5094451;28;20703;-60
2021/10/23 10:13:05;;;;;;;38.07;20.87;;;;;;;18.12;100.00;102675.00;5076180;28;20100;-60
2021/10/23 10:15:32;;;;;;;35.20;22.20;;;;;;;18.03;100.00;102663.50;5092910;28;20274;-60
2021/10/23 10:18:03;;;;;;;34.10;21.57;;;;;;;18.64;100.00;102674.53;5094814;28;20283;-60
2021/10/23 10:20:30;;;;;;;39.63;21.30;;;;;;;18.70;100.00;102676.44;5094284;28;20272;-60
2021/10/23 10:22:57;;;;;;;38.20;20.00;;;;;;;18.55;100.00;102681.19;5092995;28;20603;-59
2021/10/23 10:25:23;;;;;;;;;;;;;;;18.03;100.00;102674.34;5093323;28;20268;-59
2021/10/23 10:27:52;;;;;;;36.67;19.73;;;;;;;17.94;100.00;102686.34;5093980;28;20349;-60
2021/10/23 10:30:30;;;;;;;38.80;20.83;;;;;;;18.11;100.00;102686.88;5094345;28;20256;-59
2021/10/23 10:33:24;;;;;;;37.77;20.57;;;;;;;17.89;100.00;102689.63;5094044;28;20280;-59
2021/10/23 10:36:35;;;;;;;40.63;21.27;;;;;;;18.12;100.00;102688.53;5094313;28;20422;-60
2021/10/23 10:39:23;;;;;;;43.77;22.30;;;;;;;18.21;100.00;102686.50;5092426;28;20269;-61
2021/10/23 10:45:38;;;;;;;38.57;22.30;;;;;;;18.20;100.00;102684.81;5093608;28;20763;-60
2021/10/23 10:48:22;;;;;;;34.00;20.03;;;;;;;18.07;100.00;102691.03;5090037;28;20346;-59
2021/10/23 10:50:52;;;;;;;50.17;23.83;;;;;;;18.60;100.00;102686.84;5093755;28;20359;-58
2021/10/23 10:53:27;;;;;;;41.07;20.53;;;;;;;18.12;100.00;102685.00;5093841;28;20725;-59
2021/10/23 10:56:12;;;;;;;39.35;20.90;;;;;;;18.30;100.00;102684.44;5093702;28;20744;-60
2021/10/23 10:58:41;;;;;;;38.30;20.00;;;;;;;18.06;100.00;102681.22;5093988;28;20330;-59
2021/10/23 11:01:10;;;;;;;42.40;20.03;;;;;;;17.98;100.00;102686.75;5091995;28;20287;-59
2021/10/23 11:04:05;;;;;;;39.07;20.67;;;;;;;18.01;100.00;102680.97;5093253;28;20729;-59
2021/10/23 11:06:34;;;;;;;41.40;21.73;;;;;;;17.81;100.00;102686.25;5093359;28;20756;-60
2021/10/23 11:09:11;;;;;;;38.10;19.17;;;;;;;18.00;100.00;102680.13;5093192;28;20248;-60